Harle — ZCTV4 — position and weather

sailwx.info

Track history (hours):
 
Tides and Currents Weather Stations Pressure Air Temp Water Temp Dewpoint Dewpoint Depression Visibility Wind Speed Wind Dir Waves Ship Positions

Harle

Last reported at 2015-Jul-03 21:32 UTC. Time now 2015-Jul-03 22:00 UTC.
Position N 40°45' E 013°53'.

Length 45 m; draft 2.7 m.

Type: Pleasure craft. MMSI: 319323000.

Date/timePositionNaut miles runAvg speedWind from/ knotsBaromVisibWave heightAir tempDewpointWater temp
2015-Jul-03 21:32N 40°45' E 013°53'0 0.0
2015-Jul-03 20:32N 40°45' E 013°53'0 0.0
2015-Jul-03 19:29N 40°45' E 013°53'0 0.0
2015-Jul-03 18:32N 40°45' E 013°53'0 0.0
2015-Jul-03 17:29N 40°45' E 013°53'0 0.0
2015-Jul-03 16:29N 40°45' E 013°53'0 0.0
2015-Jul-03 15:29N 40°45' E 013°53'0 0.0
2015-Jul-03 14:32N 40°45' E 013°53'0 0.0
2015-Jul-03 13:32N 40°45' E 013°53'0 0.0
2015-Jul-03 12:29N 40°45' E 013°53'0 0.0
2015-Jul-03 11:33N 40°45' E 013°53'4 3.7
2015-Jul-03 10:33N 40°44' E 013°49'1010.3
2015-Jul-03 09:34N 40°34' E 013°51'8 8.1
2015-Jul-03 08:33N 40°27' E 013°58'1010.3
2015-Jul-03 07:33N 40°29' E 014°11'1010.3
2015-Jul-03 06:34N 40°32' E 014°24'7 0.2
2015-Jul-01 23:21N 40°37' E 014°30'0 0.0
2015-Jul-01 10:06N 40°37' E 014°30'5 7.3
2015-Jul-01 09:22N 40°34' E 014°24'7 8.9
2015-Jul-01 08:33N 40°33' E 014°15'0 0.1
2015-Jul-01 07:22N 40°33' E 014°15'0 0.0
2015-Jul-01 06:13N 40°33' E 014°15'0 0.0
2015-Jul-01 05:25N 40°33' E 014°15'0 0.0
2015-Jul-01 04:31N 40°33' E 014°15'0 0.0
2015-Jul-01 03:31N 40°33' E 014°15'0 0.0
2015-Jul-01 02:31N 40°33' E 014°15'0 0.0
2015-Jul-01 01:25N 40°33' E 014°15'0 0.0
2015-Jul-01 00:31N 40°33' E 014°15'0 0.0
2015-Jun-30 23:31N 40°33' E 014°15'0 0.0
2015-Jun-30 22:28N 40°33' E 014°15'0 0.0
2015-Jun-30 21:31N 40°33' E 014°15'0 0.0
2015-Jun-30 20:31N 40°33' E 014°15'0 0.0
2015-Jun-30 19:25N 40°33' E 014°15'0 0.0
2015-Jun-30 18:22N 40°33' E 014°15'0 0.0
2015-Jun-30 17:25N 40°33' E 014°15'0 0.0
2015-Jun-30 16:31N 40°33' E 014°15'0 0.0
2015-Jun-30 15:16N 40°33' E 014°15'0 0.0
2015-Jun-30 14:07N 40°33' E 014°15'0 0.0
2015-Jun-30 13:31N 40°33' E 014°15'0 0.0
2015-Jun-30 12:28N 40°33' E 014°15'0 0.0
2015-Jun-30 11:31N 40°33' E 014°15'0 0.0
2015-Jun-30 10:25N 40°33' E 014°15'0 0.0
2015-Jun-30 09:25N 40°33' E 014°15'0 0.0
2015-Jun-30 08:31N 40°33' E 014°15'0 0.0
2015-Jun-30 07:16N 40°33' E 014°15'0 0.0
2015-Jun-30 06:28N 40°33' E 014°15'0 0.0
2015-Jun-30 04:10N 40°33' E 014°15'0 0.0
2015-Jun-30 03:28N 40°33' E 014°15'0 0.0
2015-Jun-30 02:31N 40°33' E 014°15'0 0.0
2015-Jun-30 01:31N 40°33' E 014°15'0 0.0
2015-Jun-30 00:31N 40°33' E 014°15'0 0.0
2015-Jun-29 23:25N 40°33' E 014°15'0 0.0
2015-Jun-29 22:19N 40°33' E 014°15'0 0.0
2015-Jun-29 21:31N 40°33' E 014°15'0 0.0
2015-Jun-29 20:31N 40°33' E 014°15'0 0.0
2015-Jun-29 19:16N 40°33' E 014°15'0 0.0
2015-Jun-29 18:13N 40°33' E 014°15'0 0.0
2015-Jun-29 17:10N 40°33' E 014°15'0 0.0
2015-Jun-29 16:25N 40°33' E 014°15'0 0.0
2015-Jun-29 15:22N 40°33' E 014°15'0 0.0
2015-Jun-29 14:28N 40°33' E 014°15'0 0.0
2015-Jun-29 13:25N 40°33' E 014°15'0 0.0
2015-Jun-29 12:22N 40°33' E 014°15'0 0.0
2015-Jun-29 11:32N 40°33' E 014°15'2 1.7
2015-Jun-29 10:33N 40°34' E 014°13'1 0.7
2015-Jun-29 09:33N 40°34' E 014°13'9 8.2
2015-Jun-29 08:27N 40°38' E 014°24'0 0.0
2015-Jun-29 06:30N 40°38' E 014°24'0 0.0
2015-Jun-29 05:33N 40°38' E 014°24'0 0.0
2015-Jun-29 04:21N 40°38' E 014°24'0 0.0
2015-Jun-29 03:24N 40°38' E 014°24'0 0.0
2015-Jun-29 02:24N 40°38' E 014°24'0 0.0
2015-Jun-29 01:33N 40°38' E 014°24'0 0.0
2015-Jun-29 00:33N 40°38' E 014°24'0 0.0
2015-Jun-28 23:27N 40°38' E 014°24'0 0.0
2015-Jun-28 22:30N 40°38' E 014°24'0 0.0
2015-Jun-28 21:33N 40°38' E 014°24'0 0.0
2015-Jun-28 20:30N 40°38' E 014°24'0 0.0
2015-Jun-28 19:30N 40°38' E 014°24'0 0.0
2015-Jun-28 18:33N 40°38' E 014°24'0 0.0
2015-Jun-28 17:33N 40°38' E 014°24'0 0.0
2015-Jun-28 16:33N 40°38' E 014°24'0 0.0
2015-Jun-28 14:09N 40°38' E 014°24'0 0.0
2015-Jun-28 13:33N 40°38' E 014°24'0 0.0
2015-Jun-28 12:33N 40°38' E 014°24'0 0.0
2015-Jun-28 11:21N 40°38' E 014°24'2 2.0
2015-Jun-28 10:32N 40°40' E 014°23'1010.6
2015-Jun-28 09:32N 40°48' E 014°15'91 2.5
2015-Jun-26 20:25N 41°25' E 012°24'2010.7
2015-Jun-26 18:31N 41°35' E 012°00'9910.6
2015-Jun-26 09:06N 42°35' E 010°14'7710.2
2015-Jun-26 01:32N 43°13' E 008°42'1010.1
2015-Jun-26 00:33N 43°15' E 008°28'10 9.8
2015-Jun-25 23:33N 43°16' E 008°15'10 9.9
2015-Jun-25 22:33N 43°19' E 008°02'3310.4
2015-Jun-25 19:25N 43°27' E 007°18'910.5
2015-Jun-25 18:33N 43°29' E 007°06'4 0.1
2015-Jun-24 13:33N 43°31' E 007°01'  
Track history (hours):
 
Tides and Currents Weather Stations Pressure Air Temp Water Temp Dewpoint Dewpoint Depression Visibility Wind Speed Wind Dir Waves Ship Positions

Harle

Last reported at 2015-Jul-03 21:32 UTC. Time now 2015-Jul-03 22:00 UTC.
Position N 40°45' E 013°53'.

Length 45 m; draft 2.7 m.

Type: Pleasure craft. MMSI: 319323000.

Date/timePositionNaut miles runAvg speedWind from/ knotsBaromVisibWave heightAir tempDewpointWater temp
2015-Jul-03 21:32N 40°45' E 013°53'0 0.0
2015-Jul-03 20:32N 40°45' E 013°53'0 0.0
2015-Jul-03 19:29N 40°45' E 013°53'0 0.0
2015-Jul-03 18:32N 40°45' E 013°53'0 0.0
2015-Jul-03 17:29N 40°45' E 013°53'0 0.0
2015-Jul-03 16:29N 40°45' E 013°53'0 0.0
2015-Jul-03 15:29N 40°45' E 013°53'0 0.0
2015-Jul-03 14:32N 40°45' E 013°53'0 0.0
2015-Jul-03 13:32N 40°45' E 013°53'0 0.0
2015-Jul-03 12:29N 40°45' E 013°53'0 0.0
2015-Jul-03 11:33N 40°45' E 013°53'4 3.7
2015-Jul-03 10:33N 40°44' E 013°49'1010.3
2015-Jul-03 09:34N 40°34' E 013°51'8 8.1
2015-Jul-03 08:33N 40°27' E 013°58'1010.3
2015-Jul-03 07:33N 40°29' E 014°11'1010.3
2015-Jul-03 06:34N 40°32' E 014°24'7 0.2
2015-Jul-01 23:21N 40°37' E 014°30'0 0.0
2015-Jul-01 10:06N 40°37' E 014°30'5 7.3
2015-Jul-01 09:22N 40°34' E 014°24'7 8.9
2015-Jul-01 08:33N 40°33' E 014°15'0 0.1
2015-Jul-01 07:22N 40°33' E 014°15'0 0.0
2015-Jul-01 06:13N 40°33' E 014°15'0 0.0
2015-Jul-01 05:25N 40°33' E 014°15'0 0.0
2015-Jul-01 04:31N 40°33' E 014°15'0 0.0
2015-Jul-01 03:31N 40°33' E 014°15'0 0.0
2015-Jul-01 02:31N 40°33' E 014°15'0 0.0
2015-Jul-01 01:25N 40°33' E 014°15'0 0.0
2015-Jul-01 00:31N 40°33' E 014°15'0 0.0
2015-Jun-30 23:31N 40°33' E 014°15'0 0.0
2015-Jun-30 22:28N 40°33' E 014°15'0 0.0
2015-Jun-30 21:31N 40°33' E 014°15'0 0.0
2015-Jun-30 20:31N 40°33' E 014°15'0 0.0
2015-Jun-30 19:25N 40°33' E 014°15'0 0.0
2015-Jun-30 18:22N 40°33' E 014°15'0 0.0
2015-Jun-30 17:25N 40°33' E 014°15'0 0.0
2015-Jun-30 16:31N 40°33' E 014°15'0 0.0
2015-Jun-30 15:16N 40°33' E 014°15'0 0.0
2015-Jun-30 14:07N 40°33' E 014°15'0 0.0
2015-Jun-30 13:31N 40°33' E 014°15'0 0.0
2015-Jun-30 12:28N 40°33' E 014°15'0 0.0
2015-Jun-30 11:31N 40°33' E 014°15'0 0.0
2015-Jun-30 10:25N 40°33' E 014°15'0 0.0
2015-Jun-30 09:25N 40°33' E 014°15'0 0.0
2015-Jun-30 08:31N 40°33' E 014°15'0 0.0
2015-Jun-30 07:16N 40°33' E 014°15'0 0.0
2015-Jun-30 06:28N 40°33' E 014°15'0 0.0
2015-Jun-30 04:10N 40°33' E 014°15'0 0.0
2015-Jun-30 03:28N 40°33' E 014°15'0 0.0
2015-Jun-30 02:31N 40°33' E 014°15'0 0.0
2015-Jun-30 01:31N 40°33' E 014°15'0 0.0
2015-Jun-30 00:31N 40°33' E 014°15'0 0.0
2015-Jun-29 23:25N 40°33' E 014°15'0 0.0
2015-Jun-29 22:19N 40°33' E 014°15'0 0.0
2015-Jun-29 21:31N 40°33' E 014°15'0 0.0
2015-Jun-29 20:31N 40°33' E 014°15'0 0.0
2015-Jun-29 19:16N 40°33' E 014°15'0 0.0
2015-Jun-29 18:13N 40°33' E 014°15'0 0.0
2015-Jun-29 17:10N 40°33' E 014°15'0 0.0
2015-Jun-29 16:25N 40°33' E 014°15'0 0.0
2015-Jun-29 15:22N 40°33' E 014°15'0 0.0
2015-Jun-29 14:28N 40°33' E 014°15'0 0.0
2015-Jun-29 13:25N 40°33' E 014°15'0 0.0
2015-Jun-29 12:22N 40°33' E 014°15'0 0.0
2015-Jun-29 11:32N 40°33' E 014°15'2 1.7
2015-Jun-29 10:33N 40°34' E 014°13'1 0.7
2015-Jun-29 09:33N 40°34' E 014°13'9 8.2
2015-Jun-29 08:27N 40°38' E 014°24'0 0.0
2015-Jun-29 06:30N 40°38' E 014°24'0 0.0
2015-Jun-29 05:33N 40°38' E 014°24'0 0.0
2015-Jun-29 04:21N 40°38' E 014°24'0 0.0
2015-Jun-29 03:24N 40°38' E 014°24'0 0.0
2015-Jun-29 02:24N 40°38' E 014°24'0 0.0
2015-Jun-29 01:33N 40°38' E 014°24'0 0.0
2015-Jun-29 00:33N 40°38' E 014°24'0 0.0
2015-Jun-28 23:27N 40°38' E 014°24'0 0.0
2015-Jun-28 22:30N 40°38' E 014°24'0 0.0
2015-Jun-28 21:33N 40°38' E 014°24'0 0.0
2015-Jun-28 20:30N 40°38' E 014°24'0 0.0
2015-Jun-28 19:30N 40°38' E 014°24'0 0.0
2015-Jun-28 18:33N 40°38' E 014°24'0 0.0
2015-Jun-28 17:33N 40°38' E 014°24'0 0.0
2015-Jun-28 16:33N 40°38' E 014°24'0 0.0
2015-Jun-28 14:09N 40°38' E 014°24'0 0.0
2015-Jun-28 13:33N 40°38' E 014°24'0 0.0
2015-Jun-28 12:33N 40°38' E 014°24'0 0.0
2015-Jun-28 11:21N 40°38' E 014°24'2 2.0
2015-Jun-28 10:32N 40°40' E 014°23'1010.6
2015-Jun-28 09:32N 40°48' E 014°15'91 2.5
2015-Jun-26 20:25N 41°25' E 012°24'2010.7
2015-Jun-26 18:31N 41°35' E 012°00'9910.6
2015-Jun-26 09:06N 42°35' E 010°14'7710.2
2015-Jun-26 01:32N 43°13' E 008°42'1010.1
2015-Jun-26 00:33N 43°15' E 008°28'10 9.8
2015-Jun-25 23:33N 43°16' E 008°15'10 9.9
2015-Jun-25 22:33N 43°19' E 008°02'3310.4
2015-Jun-25 19:25N 43°27' E 007°18'910.5
2015-Jun-25 18:33N 43°29' E 007°06'4 0.1
2015-Jun-24 13:33N 43°31' E 007°01'  

Dump ship's entire track history